sensor_id;sensor_type;location;lat;lon;timestamp;pressure;altitude;pressure_sealevel;temperature;humidity
31331;BME280;34067;39.548;-76.088;2023-04-16T00:00:36;100954.73;;;22.97;55.93
31331;BME280;34067;39.548;-76.088;2023-04-16T00:03:04;100955.39;;;22.85;55.71
31331;BME280;34067;39.548;-76.088;2023-04-16T00:05:32;100957.52;;;22.53;55.43
31331;BME280;34067;39.548;-76.088;2023-04-16T00:07:59;100964.20;;;23.04;55.28
31331;BME280;34067;39.548;-76.088;2023-04-16T00:10:27;100968.90;;;22.84;54.96
31331;BME280;34067;39.548;-76.088;2023-04-16T00:12:55;100969.46;;;23.34;54.04
31331;BME280;34067;39.548;-76.088;2023-04-16T00:15:23;100970.62;;;22.43;53.83
31331;BME280;34067;39.548;-76.088;2023-04-16T00:17:51;100971.54;;;22.70;53.27
31331;BME280;34067;39.548;-76.088;2023-04-16T00:20:20;100972.27;;;22.84;53.08
31331;BME280;34067;39.548;-76.088;2023-04-16T00:22:50;100976.82;;;23.32;53.03
31331;BME280;34067;39.548;-76.088;2023-04-16T00:25:17;100978.97;;;22.96;52.79
31331;BME280;34067;39.548;-76.088;2023-04-16T00:27:45;100980.21;;;23.21;52.49
31331;BME280;34067;39.548;-76.088;2023-04-16T00:30:13;100977.09;;;23.36;53.28
31331;BME280;34067;39.548;-76.088;2023-04-16T00:32:41;100981.24;;;23.17;53.78
31331;BME280;34067;39.548;-76.088;2023-04-16T00:35:09;100986.22;;;23.26;53.90
31331;BME280;34067;39.548;-76.088;2023-04-16T00:37:36;100987.88;;;23.47;53.45
31331;BME280;34067;39.548;-76.088;2023-04-16T00:40:05;100990.66;;;23.40;54.64
31331;BME280;34067;39.548;-76.088;2023-04-16T00:42:34;100994.87;;;22.08;55.82
31331;BME280;34067;39.548;-76.088;2023-04-16T00:45:02;100996.28;;;22.82;54.79
31331;BME280;34067;39.548;-76.088;2023-04-16T00:47:30;100993.97;;;23.22;54.99
31331;BME280;34067;39.548;-76.088;2023-04-16T00:49:58;100990.69;;;22.97;54.73
31331;BME280;34067;39.548;-76.088;2023-04-16T00:52:26;100991.53;;;22.47;54.83
31331;BME280;34067;39.548;-76.088;2023-04-16T00:54:55;100993.71;;;23.26;54.95
31331;BME280;34067;39.548;-76.088;2023-04-16T00:57:24;100995.44;;;23.20;55.29
31331;BME280;34067;39.548;-76.088;2023-04-16T00:59:52;100994.33;;;22.47;56.32
31331;BME280;34067;39.548;-76.088;2023-04-16T01:02:20;100994.47;;;23.22;55.27
31331;BME280;34067;39.548;-76.088;2023-04-16T01:04:48;100991.64;;;22.55;55.71
31331;BME280;34067;39.548;-76.088;2023-04-16T01:07:16;100991.36;;;22.07;57.23
31331;BME280;34067;39.548;-76.088;2023-04-16T01:09:44;100987.21;;;22.45;56.77
31331;BME280;34067;39.548;-76.088;2023-04-16T01:12:12;100987.02;;;22.13;58.08
31331;BME280;34067;39.548;-76.088;2023-04-16T01:14:40;100986.24;;;21.35;58.94
31331;BME280;34067;39.548;-76.088;2023-04-16T01:17:08;100981.45;;;21.54;59.16
31331;BME280;34067;39.548;-76.088;2023-04-16T01:19:36;100973.74;;;22.18;58.26
31331;BME280;34067;39.548;-76.088;2023-04-16T01:22:04;100968.09;;;21.99;57.57
31331;BME280;34067;39.548;-76.088;2023-04-16T01:24:32;100964.80;;;22.21;57.33
31331;BME280;34067;39.548;-76.088;2023-04-16T01:27:00;100961.94;;;22.49;56.58
31331;BME280;34067;39.548;-76.088;2023-04-16T01:29:28;100961.38;;;22.49;55.94
31331;BME280;34067;39.548;-76.088;2023-04-16T01:31:56;100963.43;;;22.31;56.68
31331;BME280;34067;39.548;-76.088;2023-04-16T01:34:24;100965.74;;;22.22;57.14
31331;BME280;34067;39.548;-76.088;2023-04-16T01:36:52;100964.06;;;22.16;56.56
31331;BME280;34067;39.548;-76.088;2023-04-16T01:39:20;100960.86;;;22.17;56.23
31331;BME280;34067;39.548;-76.088;2023-04-16T01:41:48;100961.66;;;22.39;55.52
31331;BME280;34067;39.548;-76.088;2023-04-16T01:44:16;100963.55;;;22.32;55.60
31331;BME280;34067;39.548;-76.088;2023-04-16T01:46:44;100959.65;;;22.41;55.33
31331;BME280;34067;39.548;-76.088;2023-04-16T01:49:12;100952.89;;;22.32;55.40
31331;BME280;34067;39.548;-76.088;2023-04-16T01:51:39;100946.92;;;22.41;55.66
31331;BME280;34067;39.548;-76.088;2023-04-16T01:54:08;100940.15;;;22.20;56.17
31331;BME280;34067;39.548;-76.088;2023-04-16T01:56:35;100940.85;;;21.75;56.19
31331;BME280;34067;39.548;-76.088;2023-04-16T01:59:03;100939.50;;;21.99;57.08
31331;BME280;34067;39.548;-76.088;2023-04-16T02:01:31;100936.76;;;22.23;59.01
31331;BME280;34067;39.548;-76.088;2023-04-16T02:03:59;100924.93;;;22.18;58.46
31331;BME280;34067;39.548;-76.088;2023-04-16T02:06:27;100921.92;;;21.03;59.81
31331;BME280;34067;39.548;-76.088;2023-04-16T02:08:55;100913.93;;;21.54;58.96
31331;BME280;34067;39.548;-76.088;2023-04-16T02:11:23;100908.37;;;21.70;58.48
31331;BME280;34067;39.548;-76.088;2023-04-16T02:13:51;100907.95;;;22.00;58.86
31331;BME280;34067;39.548;-76.088;2023-04-16T02:16:19;100908.39;;;21.73;58.35
31331;BME280;34067;39.548;-76.088;2023-04-16T02:18:46;100905.63;;;22.16;59.15
31331;BME280;34067;39.548;-76.088;2023-04-16T02:21:14;100901.73;;;21.99;59.76
31331;BME280;34067;39.548;-76.088;2023-04-16T02:23:42;100899.04;;;21.61;60.52
31331;BME280;34067;39.548;-76.088;2023-04-16T02:26:10;100900.23;;;21.78;61.95
31331;BME280;34067;39.548;-76.088;2023-04-16T02:28:38;100892.66;;;20.76;63.75
31331;BME280;34067;39.548;-76.088;2023-04-16T02:31:06;100890.09;;;20.92;63.50
31331;BME280;34067;39.548;-76.088;2023-04-16T02:33:34;100896.81;;;21.27;64.19
31331;BME280;34067;39.548;-76.088;2023-04-16T02:36:02;100896.38;;;21.03;64.32
31331;BME280;34067;39.548;-76.088;2023-04-16T02:38:30;100891.63;;;21.08;64.74
31331;BME280;34067;39.548;-76.088;2023-04-16T02:40:58;100888.47;;;21.02;65.33
31331;BME280;34067;39.548;-76.088;2023-04-16T02:43:26;100886.95;;;21.03;65.68
31331;BME280;34067;39.548;-76.088;2023-04-16T02:45:54;100885.11;;;21.09;65.52
31331;BME280;34067;39.548;-76.088;2023-04-16T02:48:22;100880.71;;;20.66;67.24
31331;BME280;34067;39.548;-76.088;2023-04-16T02:50:50;100874.29;;;20.61;67.63
31331;BME280;34067;39.548;-76.088;2023-04-16T02:53:18;100869.11;;;20.52;67.81
31331;BME280;34067;39.548;-76.088;2023-04-16T02:55:49;100868.84;;;20.09;68.66
31331;BME280;34067;39.548;-76.088;2023-04-16T02:58:17;100877.12;;;20.53;67.95
31331;BME280;34067;39.548;-76.088;2023-04-16T03:00:45;100891.69;;;20.20;69.30
31331;BME280;34067;39.548;-76.088;2023-04-16T03:03:13;100898.18;;;20.56;68.87
31331;BME280;34067;39.548;-76.088;2023-04-16T03:05:40;100894.18;;;21.07;68.55
31331;BME280;34067;39.548;-76.088;2023-04-16T03:08:08;100895.21;;;20.41;69.46
31331;BME280;34067;39.548;-76.088;2023-04-16T03:10:36;100893.54;;;20.97;69.34
31331;BME280;34067;39.548;-76.088;2023-04-16T03:13:04;100892.24;;;20.66;70.04
31331;BME280;34067;39.548;-76.088;2023-04-16T03:15:32;100892.06;;;19.69;71.18
31331;BME280;34067;39.548;-76.088;2023-04-16T03:18:00;100894.60;;;21.42;70.65
31331;BME280;34067;39.548;-76.088;2023-04-16T03:20:28;100894.75;;;20.08;70.24
31331;BME280;34067;39.548;-76.088;2023-04-16T03:22:56;100899.03;;;20.42;70.87
31331;BME280;34067;39.548;-76.088;2023-04-16T03:25:24;100905.18;;;20.62;71.20
31331;BME280;34067;39.548;-76.088;2023-04-16T03:27:52;100912.27;;;20.44;71.14
31331;BME280;34067;39.548;-76.088;2023-04-16T03:30:20;100923.73;;;20.37;71.96
31331;BME280;34067;39.548;-76.088;2023-04-16T03:32:48;100936.22;;;20.24;72.31
31331;BME280;34067;39.548;-76.088;2023-04-16T03:35:15;100942.55;;;20.50;73.18
31331;BME280;34067;39.548;-76.088;2023-04-16T03:37:43;100945.49;;;20.13;73.32
31331;BME280;34067;39.548;-76.088;2023-04-16T03:40:12;100948.62;;;21.41;73.22
31331;BME280;34067;39.548;-76.088;2023-04-16T03:42:40;100942.87;;;20.54;73.02
31331;BME280;34067;39.548;-76.088;2023-04-16T03:45:09;100942.29;;;20.24;73.05
31331;BME280;34067;39.548;-76.088;2023-04-16T03:47:37;100953.50;;;20.37;73.15
31331;BME280;34067;39.548;-76.088;2023-04-16T03:50:05;100965.52;;;20.43;72.91
31331;BME280;34067;39.548;-76.088;2023-04-16T03:52:33;100978.67;;;20.39;74.49
31331;BME280;34067;39.548;-76.088;2023-04-16T03:55:01;100981.24;;;20.33;75.15
31331;BME280;34067;39.548;-76.088;2023-04-16T03:57:29;100977.82;;;20.72;75.96
31331;BME280;34067;39.548;-76.088;2023-04-16T03:59:57;100974.46;;;20.55;74.94
31331;BME280;34067;39.548;-76.088;2023-04-16T04:02:25;100970.63;;;20.88;73.30
31331;BME280;34067;39.548;-76.088;2023-04-16T04:04:53;100989.61;;;19.11;77.83
31331;BME280;34067;39.548;-76.088;2023-04-16T04:07:21;100992.84;;;19.82;78.26
31331;BME280;34067;39.548;-76.088;2023-04-16T04:09:49;100996.24;;;19.90;76.66
31331;BME280;34067;39.548;-76.088;2023-04-16T04:12:17;101004.72;;;20.33;76.96
31331;BME280;34067;39.548;-76.088;2023-04-16T04:14:45;101006.54;;;20.05;74.76
31331;BME280;34067;39.548;-76.088;2023-04-16T04:17:13;101004.91;;;20.63;74.06
31331;BME280;34067;39.548;-76.088;2023-04-16T04:19:41;101007.52;;;20.44;73.55
31331;BME280;34067;39.548;-76.088;2023-04-16T04:22:09;101009.60;;;20.16;73.80
31331;BME280;34067;39.548;-76.088;2023-04-16T04:24:37;101009.26;;;19.96;74.59
31331;BME280;34067;39.548;-76.088;2023-04-16T04:27:05;101008.46;;;20.52;72.52
31331;BME280;34067;39.548;-76.088;2023-04-16T04:29:33;101011.16;;;20.23;72.49
31331;BME280;34067;39.548;-76.088;2023-04-16T04:32:01;101005.70;;;20.37;71.63
31331;BME280;34067;39.548;-76.088;2023-04-16T04:34:29;101000.79;;;20.09;71.44
31331;BME280;34067;39.548;-76.088;2023-04-16T04:36:57;100993.93;;;20.87;71.95
31331;BME280;34067;39.548;-76.088;2023-04-16T04:39:25;100995.05;;;21.31;70.41
31331;BME280;34067;39.548;-76.088;2023-04-16T04:41:53;100993.79;;;20.75;73.33
31331;BME280;34067;39.548;-76.088;2023-04-16T04:44:21;100983.22;;;20.81;72.92
31331;BME280;34067;39.548;-76.088;2023-04-16T04:46:49;100968.63;;;20.79;73.01
31331;BME280;34067;39.548;-76.088;2023-04-16T04:49:17;100963.51;;;20.51;73.86
31331;BME280;34067;39.548;-76.088;2023-04-16T04:51:44;100962.88;;;19.92;75.79
31331;BME280;34067;39.548;-76.088;2023-04-16T04:54:13;100962.29;;;20.02;77.09
31331;BME280;34067;39.548;-76.088;2023-04-16T04:56:40;100963.19;;;19.02;83.50
31331;BME280;34067;39.548;-76.088;2023-04-16T04:59:08;100966.93;;;19.33;83.05
31331;BME280;34067;39.548;-76.088;2023-04-16T05:03:11;100962.84;;;19.04;82.07
31331;BME280;34067;39.548;-76.088;2023-04-16T05:05:38;100958.99;;;18.87;82.98
31331;BME280;34067;39.548;-76.088;2023-04-16T05:08:07;100960.53;;;18.00;88.42
31331;BME280;34067;39.548;-76.088;2023-04-16T05:10:34;100957.01;;;18.77;86.83
31331;BME280;34067;39.548;-76.088;2023-04-16T05:13:02;100954.60;;;17.56;89.03
31331;BME280;34067;39.548;-76.088;2023-04-16T05:15:30;100951.80;;;18.41;88.49
31331;BME280;34067;39.548;-76.088;2023-04-16T05:17:57;100948.43;;;19.05;84.73
31331;BME280;34067;39.548;-76.088;2023-04-16T05:20:25;100944.75;;;19.13;82.18
31331;BME280;34067;39.548;-76.088;2023-04-16T05:22:53;100937.75;;;19.53;80.41
31331;BME280;34067;39.548;-76.088;2023-04-16T05:25:21;100941.18;;;19.08;80.48
31331;BME280;34067;39.548;-76.088;2023-04-16T05:27:48;100942.47;;;19.61;78.36
31331;BME280;34067;39.548;-76.088;2023-04-16T05:30:16;100946.14;;;17.75;85.03
31331;BME280;34067;39.548;-76.088;2023-04-16T05:32:44;100948.23;;;19.29;83.33
31331;BME280;34067;39.548;-76.088;2023-04-16T05:35:12;100943.36;;;19.46;81.25
31331;BME280;34067;39.548;-76.088;2023-04-16T05:37:40;100943.40;;;18.69;83.63
31331;BME280;34067;39.548;-76.088;2023-04-16T05:40:11;100941.92;;;17.55;86.23
31331;BME280;34067;39.548;-76.088;2023-04-16T05:42:39;100945.42;;;17.94;87.09
31331;BME280;34067;39.548;-76.088;2023-04-16T05:45:08;100944.02;;;17.73;86.08
31331;BME280;34067;39.548;-76.088;2023-04-16T05:47:35;100944.70;;;16.43;92.41
31331;BME280;34067;39.548;-76.088;2023-04-16T05:50:03;100941.15;;;17.17;89.09
31331;BME280;34067;39.548;-76.088;2023-04-16T05:52:32;100937.11;;;18.88;86.97
31331;BME280;34067;39.548;-76.088;2023-04-16T05:55:00;100932.40;;;19.15;87.25
31331;BME280;34067;39.548;-76.088;2023-04-16T05:57:28;100934.56;;;18.52;88.22
31331;BME280;34067;39.548;-76.088;2023-04-16T05:59:56;100936.17;;;18.86;85.59
31331;BME280;34067;39.548;-76.088;2023-04-16T06:02:24;100933.42;;;19.03;83.21
31331;BME280;34067;39.548;-76.088;2023-04-16T06:04:52;100927.25;;;19.72;79.34
31331;BME280;34067;39.548;-76.088;2023-04-16T06:07:20;100916.37;;;20.19;77.87
31331;BME280;34067;39.548;-76.088;2023-04-16T06:09:47;100916.70;;;20.30;76.90
31331;BME280;34067;39.548;-76.088;2023-04-16T06:12:14;100922.85;;;20.00;77.81
31331;BME280;34067;39.548;-76.088;2023-04-16T06:14:42;100927.09;;;19.67;78.77
31331;BME280;34067;39.548;-76.088;2023-04-16T06:17:10;100928.30;;;19.72;78.37
31331;BME280;34067;39.548;-76.088;2023-04-16T06:19:38;100921.34;;;20.04;78.05
31331;BME280;34067;39.548;-76.088;2023-04-16T06:22:06;100918.71;;;19.57;78.13
31331;BME280;34067;39.548;-76.088;2023-04-16T06:24:34;100916.74;;;20.23;77.28
31331;BME280;34067;39.548;-76.088;2023-04-16T06:27:02;100913.35;;;19.88;76.16
31331;BME280;34067;39.548;-76.088;2023-04-16T06:29:30;100903.41;;;20.03;75.48
31331;BME280;34067;39.548;-76.088;2023-04-16T06:31:58;100901.33;;;19.55;75.65
31331;BME280;34067;39.548;-76.088;2023-04-16T06:34:27;100907.45;;;20.25;76.07
31331;BME280;34067;39.548;-76.088;2023-04-16T06:36:55;100902.50;;;20.08;75.25
31331;BME280;34067;39.548;-76.088;2023-04-16T06:39:23;100906.35;;;20.33;74.01
31331;BME280;34067;39.548;-76.088;2023-04-16T06:41:51;100910.47;;;19.57;74.77
31331;BME280;34067;39.548;-76.088;2023-04-16T06:44:19;100907.85;;;20.21;74.16
31331;BME280;34067;39.548;-76.088;2023-04-16T06:46:47;100909.27;;;19.26;76.19
31331;BME280;34067;39.548;-76.088;2023-04-16T06:49:15;100905.98;;;19.92;76.91
31331;BME280;34067;39.548;-76.088;2023-04-16T06:51:43;100905.60;;;20.07;75.01
31331;BME280;34067;39.548;-76.088;2023-04-16T06:54:11;100902.69;;;20.31;73.72
31331;BME280;34067;39.548;-76.088;2023-04-16T06:56:39;100902.19;;;20.52;74.25
31331;BME280;34067;39.548;-76.088;2023-04-16T06:59:07;100897.03;;;20.11;74.24
31331;BME280;34067;39.548;-76.088;2023-04-16T07:01:35;100893.02;;;19.74;73.97
31331;BME280;34067;39.548;-76.088;2023-04-16T07:04:02;100896.96;;;20.12;75.31
31331;BME280;34067;39.548;-76.088;2023-04-16T07:06:30;100900.73;;;20.35;76.05
31331;BME280;34067;39.548;-76.088;2023-04-16T07:08:58;100902.67;;;19.50;76.94
31331;BME280;34067;39.548;-76.088;2023-04-16T07:11:26;100894.57;;;19.09;78.08
31331;BME280;34067;39.548;-76.088;2023-04-16T07:13:54;100885.87;;;19.42;78.45
31331;BME280;34067;39.548;-76.088;2023-04-16T07:16:22;100877.30;;;19.42;77.74
31331;BME280;34067;39.548;-76.088;2023-04-16T07:18:50;100881.81;;;19.66;77.32
31331;BME280;34067;39.548;-76.088;2023-04-16T07:21:18;100880.52;;;19.59;77.27
31331;BME280;34067;39.548;-76.088;2023-04-16T07:23:46;100883.67;;;19.09;79.11
31331;BME280;34067;39.548;-76.088;2023-04-16T07:26:13;100881.07;;;19.58;78.58
31331;BME280;34067;39.548;-76.088;2023-04-16T07:28:41;100873.42;;;19.60;78.94
31331;BME280;34067;39.548;-76.088;2023-04-16T07:31:09;100870.54;;;19.13;78.73
31331;BME280;34067;39.548;-76.088;2023-04-16T07:33:36;100874.26;;;18.92;79.73
31331;BME280;34067;39.548;-76.088;2023-04-16T07:36:04;100876.54;;;18.65;80.70
31331;BME280;34067;39.548;-76.088;2023-04-16T07:38:32;100881.34;;;18.86;79.56
31331;BME280;34067;39.548;-76.088;2023-04-16T07:41:00;100876.64;;;19.12;77.58
31331;BME280;34067;39.548;-76.088;2023-04-16T07:43:28;100870.78;;;18.99;77.72
31331;BME280;34067;39.548;-76.088;2023-04-16T07:45:56;100867.25;;;18.59;79.12
31331;BME280;34067;39.548;-76.088;2023-04-16T07:48:24;100865.71;;;19.37;80.63
31331;BME280;34067;39.548;-76.088;2023-04-16T07:50:52;100864.62;;;17.39;86.66
31331;BME280;34067;39.548;-76.088;2023-04-16T07:53:20;100871.87;;;18.84;84.85
31331;BME280;34067;39.548;-76.088;2023-04-16T07:55:48;100875.80;;;18.73;84.39
31331;BME280;34067;39.548;-76.088;2023-04-16T07:58:17;100872.38;;;18.98;83.76
31331;BME280;34067;39.548;-76.088;2023-04-16T08:00:45;100871.69;;;18.63;82.75
31331;BME280;34067;39.548;-76.088;2023-04-16T08:03:13;100870.81;;;18.57;83.12
31331;BME280;34067;39.548;-76.088;2023-04-16T08:05:40;100870.26;;;18.90;80.47
31331;BME280;34067;39.548;-76.088;2023-04-16T08:08:08;100872.61;;;18.82;80.18
31331;BME280;34067;39.548;-76.088;2023-04-16T08:10:36;100869.13;;;18.49;79.18
31331;BME280;34067;39.548;-76.088;2023-04-16T08:13:04;100870.25;;;19.10;78.23
31331;BME280;34067;39.548;-76.088;2023-04-16T08:15:33;100874.13;;;18.97;78.59
31331;BME280;34067;39.548;-76.088;2023-04-16T08:18:01;100875.68;;;18.37;78.12
31331;BME280;34067;39.548;-76.088;2023-04-16T08:20:29;100884.67;;;19.19;78.29
31331;BME280;34067;39.548;-76.088;2023-04-16T08:22:56;100888.80;;;19.27;78.15
31331;BME280;34067;39.548;-76.088;2023-04-16T08:25:24;100893.03;;;18.74;78.65
31331;BME280;34067;39.548;-76.088;2023-04-16T08:27:51;100895.71;;;18.69;78.67
31331;BME280;34067;39.548;-76.088;2023-04-16T08:30:19;100898.69;;;18.10;77.87
31331;BME280;34067;39.548;-76.088;2023-04-16T08:32:47;100904.70;;;18.59;77.73
31331;BME280;34067;39.548;-76.088;2023-04-16T08:35:15;100902.04;;;18.58;78.23
31331;BME280;34067;39.548;-76.088;2023-04-16T08:37:43;100903.66;;;19.12;78.75
31331;BME280;34067;39.548;-76.088;2023-04-16T08:40:12;100907.18;;;17.81;79.65
31331;BME280;34067;39.548;-76.088;2023-04-16T08:42:43;100909.25;;;18.58;78.05
31331;BME280;34067;39.548;-76.088;2023-04-16T08:45:13;100908.96;;;18.44;79.58
31331;BME280;34067;39.548;-76.088;2023-04-16T08:47:45;100906.76;;;18.35;79.99
31331;BME280;34067;39.548;-76.088;2023-04-16T08:50:15;100909.31;;;18.57;79.32
31331;BME280;34067;39.548;-76.088;2023-04-16T08:52:49;100910.13;;;19.02;79.74
31331;BME280;34067;39.548;-76.088;2023-04-16T08:55:20;100908.51;;;18.63;79.17
31331;BME280;34067;39.548;-76.088;2023-04-16T08:57:52;100912.68;;;18.62;80.35
31331;BME280;34067;39.548;-76.088;2023-04-16T09:00:21;100921.43;;;18.46;80.21
31331;BME280;34067;39.548;-76.088;2023-04-16T09:02:50;100929.09;;;18.99;80.42
31331;BME280;34067;39.548;-76.088;2023-04-16T09:05:18;100936.23;;;19.21;78.82
31331;BME280;34067;39.548;-76.088;2023-04-16T09:07:47;100939.69;;;18.98;78.84
31331;BME280;34067;39.548;-76.088;2023-04-16T09:10:15;100941.20;;;18.81;80.08
31331;BME280;34067;39.548;-76.088;2023-04-16T09:12:44;100945.45;;;19.00;80.12
31331;BME280;34067;39.548;-76.088;2023-04-16T09:15:12;100940.32;;;18.73;79.45
31331;BME280;34067;39.548;-76.088;2023-04-16T09:17:41;100937.56;;;18.34;78.56
31331;BME280;34067;39.548;-76.088;2023-04-16T09:20:09;100941.03;;;18.50;78.51
31331;BME280;34067;39.548;-76.088;2023-04-16T09:22:37;100944.10;;;18.64;77.90
31331;BME280;34067;39.548;-76.088;2023-04-16T09:25:05;100945.57;;;18.59;78.04
31331;BME280;34067;39.548;-76.088;2023-04-16T09:27:35;100942.43;;;19.16;77.58
31331;BME280;34067;39.548;-76.088;2023-04-16T09:30:18;100936.67;;;17.93;79.97
31331;BME280;34067;39.548;-76.088;2023-04-16T09:32:46;100938.72;;;18.46;81.76
31331;BME280;34067;39.548;-76.088;2023-04-16T09:35:15;100943.38;;;17.96;86.13
31331;BME280;34067;39.548;-76.088;2023-04-16T09:37:46;100944.36;;;17.99;85.12
31331;BME280;34067;39.548;-76.088;2023-04-16T09:40:24;100944.41;;;18.19;85.41
31331;BME280;34067;39.548;-76.088;2023-04-16T09:42:56;100945.16;;;17.91;87.16
31331;BME280;34067;39.548;-76.088;2023-04-16T09:45:24;100953.75;;;17.97;89.11
31331;BME280;34067;39.548;-76.088;2023-04-16T09:48:02;100955.02;;;17.35;92.45
31331;BME280;34067;39.548;-76.088;2023-04-16T09:50:30;100955.67;;;16.73;94.54
31331;BME280;34067;39.548;-76.088;2023-04-16T09:53:01;100950.26;;;17.25;92.78
31331;BME280;34067;39.548;-76.088;2023-04-16T09:55:29;100954.43;;;15.97;100.00
31331;BME280;34067;39.548;-76.088;2023-04-16T09:57:59;100952.74;;;14.89;100.00
31331;BME280;34067;39.548;-76.088;2023-04-16T10:00:29;100959.54;;;16.19;100.00
31331;BME280;34067;39.548;-76.088;2023-04-16T10:03:03;100964.97;;;16.06;100.00
31331;BME280;34067;39.548;-76.088;2023-04-16T10:05:31;100975.84;;;15.47;100.00
31331;BME280;34067;39.548;-76.088;2023-04-16T10:08:00;100974.35;;;15.91;100.00
31331;BME280;34067;39.548;-76.088;2023-04-16T10:10:28;100971.64;;;15.75;100.00
31331;BME280;34067;39.548;-76.088;2023-04-16T10:12:57;100969.06;;;16.36;100.00
31331;BME280;34067;39.548;-76.088;2023-04-16T10:15:25;100974.92;;;17.09;96.86
31331;BME280;34067;39.548;-76.088;2023-04-16T10:17:53;100982.90;;;17.71;96.02
31331;BME280;34067;39.548;-76.088;2023-04-16T10:20:23;100987.36;;;17.32;93.51
31331;BME280;34067;39.548;-76.088;2023-04-16T10:22:53;100987.94;;;16.97;98.67
31331;BME280;34067;39.548;-76.088;2023-04-16T10:25:22;100992.79;;;16.90;95.55
31331;BME280;34067;39.548;-76.088;2023-04-16T10:27:50;100997.60;;;17.12;94.56
31331;BME280;34067;39.548;-76.088;2023-04-16T10:30:18;101006.27;;;16.29;96.12
31331;BME280;34067;39.548;-76.088;2023-04-16T10:32:47;101005.52;;;17.22;97.14
31331;BME280;34067;39.548;-76.088;2023-04-16T10:35:19;101000.24;;;17.04;97.27
31331;BME280;34067;39.548;-76.088;2023-04-16T10:37:46;100996.94;;;15.26;100.00
31331;BME280;34067;39.548;-76.088;2023-04-16T10:40:22;100995.33;;;16.32;100.00
31331;BME280;34067;39.548;-76.088;2023-04-16T10:42:55;101004.06;;;14.82;100.00
31331;BME280;34067;39.548;-76.088;2023-04-16T10:45:29;101008.34;;;13.59;100.00
31331;BME280;34067;39.548;-76.088;2023-04-16T10:47:57;101009.53;;;14.88;100.00
31331;BME280;34067;39.548;-76.088;2023-04-16T10:50:34;101003.87;;;15.05;100.00
31331;BME280;34067;39.548;-76.088;2023-04-16T10:53:17;101010.63;;;14.23;100.00
31331;BME280;34067;39.548;-76.088;2023-04-16T10:56:10;101014.10;;;15.62;100.00
31331;BME280;34067;39.548;-76.088;2023-04-16T10:58:38;101012.05;;;14.94;100.00
31331;BME280;34067;39.548;-76.088;2023-04-16T11:01:11;101007.97;;;13.98;100.00
31331;BME280;34067;39.548;-76.088;2023-04-16T11:03:46;101004.34;;;14.18;100.00
31331;BME280;34067;39.548;-76.088;2023-04-16T11:06:16;101005.54;;;14.03;100.00
31331;BME280;34067;39.548;-76.088;2023-04-16T11:08:45;101011.02;;;16.11;100.00
31331;BME280;34067;39.548;-76.088;2023-04-16T11:11:14;101003.03;;;13.80;100.00
31331;BME280;34067;39.548;-76.088;2023-04-16T11:13:44;101000.09;;;14.45;100.00
31331;BME280;34067;39.548;-76.088;2023-04-16T11:16:13;101004.66;;;15.87;100.00
31331;BME280;34067;39.548;-76.088;2023-04-16T11:18:45;101010.94;;;15.14;100.00
31331;BME280;34067;39.548;-76.088;2023-04-16T11:21:12;101011.83;;;15.53;100.00
31331;BME280;34067;39.548;-76.088;2023-04-16T11:23:49;101015.90;;;15.90;100.00
31331;BME280;34067;39.548;-76.088;2023-04-16T11:26:24;101019.58;;;16.78;100.00
31331;BME280;34067;39.548;-76.088;2023-04-16T11:28:53;101029.55;;;17.07;100.00
31331;BME280;34067;39.548;-76.088;2023-04-16T11:31:22;101029.88;;;17.38;100.00
31331;BME280;34067;39.548;-76.088;2023-04-16T11:33:51;101028.29;;;17.03;100.00
31331;BME280;34067;39.548;-76.088;2023-04-16T11:36:19;101024.66;;;16.13;100.00
31331;BME280;34067;39.548;-76.088;2023-04-16T11:38:46;101026.08;;;14.27;100.00
31331;BME280;34067;39.548;-76.088;2023-04-16T11:41:19;101021.27;;;15.31;100.00
31331;BME280;34067;39.548;-76.088;2023-04-16T11:43:47;101015.06;;;14.60;100.00
31331;BME280;34067;39.548;-76.088;2023-04-16T11:46:15;101011.01;;;14.16;100.00
31331;BME280;34067;39.548;-76.088;2023-04-16T11:48:48;101003.72;;;13.94;100.00
31331;BME280;34067;39.548;-76.088;2023-04-16T11:51:17;101001.38;;;14.11;100.00
31331;BME280;34067;39.548;-76.088;2023-04-16T11:53:49;101002.81;;;14.27;100.00
31331;BME280;34067;39.548;-76.088;2023-04-16T11:56:25;101005.95;;;15.08;100.00
31331;BME280;34067;39.548;-76.088;2023-04-16T11:59:10;101004.30;;;14.62;100.00
31331;BME280;34067;39.548;-76.088;2023-04-16T12:01:40;100992.63;;;16.80;100.00
31331;BME280;34067;39.548;-76.088;2023-04-16T12:04:09;100993.82;;;16.40;100.00
31331;BME280;34067;39.548;-76.088;2023-04-16T12:06:36;100998.54;;;16.41;100.00
31331;BME280;34067;39.548;-76.088;2023-04-16T12:09:22;100996.14;;;17.00;100.00
31331;BME280;34067;39.548;-76.088;2023-04-16T12:11:51;100999.71;;;17.50;100.00
31331;BME280;34067;39.548;-76.088;2023-04-16T12:14:19;101001.16;;;16.80;100.00
31331;BME280;34067;39.548;-76.088;2023-04-16T12:16:47;101002.05;;;17.77;100.00
31331;BME280;34067;39.548;-76.088;2023-04-16T12:19:15;101001.34;;;17.94;96.04
31331;BME280;34067;39.548;-76.088;2023-04-16T12:21:44;101000.53;;;18.58;93.21
31331;BME280;34067;39.548;-76.088;2023-04-16T12:24:13;101000.61;;;18.71;91.61
31331;BME280;34067;39.548;-76.088;2023-04-16T12:26:43;101000.90;;;18.94;92.81
31331;BME280;34067;39.548;-76.088;2023-04-16T12:29:16;101001.08;;;18.77;91.38
31331;BME280;34067;39.548;-76.088;2023-04-16T12:31:45;101005.35;;;19.04;89.71
31331;BME280;34067;39.548;-76.088;2023-04-16T12:34:13;101006.16;;;19.28;89.39
31331;BME280;34067;39.548;-76.088;2023-04-16T12:36:42;101005.60;;;19.18;88.13